sensor_id;sensor_type;location;lat;lon;timestamp;P1;durP1;ratioP1;P2;durP2;ratioP2
11346;SDS011;5728;42.722;23.258;2023-06-10T00:02:04;8.05;;;6.35;;
11346;SDS011;5728;42.722;23.258;2023-06-10T00:04:32;9.05;;;6.72;;
11346;SDS011;5728;42.722;23.258;2023-06-10T00:06:59;11.85;;;6.72;;
11346;SDS011;5728;42.722;23.258;2023-06-10T00:09:26;9.98;;;6.18;;
11346;SDS011;5728;42.722;23.258;2023-06-10T00:11:54;9.43;;;6.03;;
11346;SDS011;5728;42.722;23.258;2023-06-10T00:14:22;7.15;;;6.35;;
11346;SDS011;5728;42.722;23.258;2023-06-10T00:16:49;9.00;;;6.85;;
11346;SDS011;5728;42.722;23.258;2023-06-10T00:19:17;9.18;;;6.95;;
11346;SDS011;5728;42.722;23.258;2023-06-10T00:21:44;8.68;;;6.70;;
11346;SDS011;5728;42.722;23.258;2023-06-10T00:24:10;8.50;;;6.57;;
11346;SDS011;5728;42.722;23.258;2023-06-10T00:26:37;15.45;;;7.00;;
11346;SDS011;5728;42.722;23.258;2023-06-10T00:29:04;12.45;;;6.63;;
11346;SDS011;5728;42.722;23.258;2023-06-10T00:31:33;9.02;;;6.68;;
11346;SDS011;5728;42.722;23.258;2023-06-10T00:34:00;8.52;;;6.60;;
11346;SDS011;5728;42.722;23.258;2023-06-10T00:36:27;10.02;;;6.50;;
11346;SDS011;5728;42.722;23.258;2023-06-10T00:38:55;11.13;;;6.72;;
11346;SDS011;5728;42.722;23.258;2023-06-10T00:41:22;12.00;;;6.95;;
11346;SDS011;5728;42.722;23.258;2023-06-10T00:43:49;9.93;;;7.10;;
11346;SDS011;5728;42.722;23.258;2023-06-10T00:46:16;9.63;;;7.40;;
11346;SDS011;5728;42.722;23.258;2023-06-10T00:48:44;12.13;;;8.20;;
11346;SDS011;5728;42.722;23.258;2023-06-10T00:51:12;8.93;;;7.07;;
11346;SDS011;5728;42.722;23.258;2023-06-10T00:53:40;11.50;;;7.43;;
11346;SDS011;5728;42.722;23.258;2023-06-10T00:56:07;8.02;;;7.22;;
11346;SDS011;5728;42.722;23.258;2023-06-10T00:58:34;13.45;;;8.05;;
11346;SDS011;5728;42.722;23.258;2023-06-10T01:01:02;10.73;;;8.23;;
11346;SDS011;5728;42.722;23.258;2023-06-10T01:03:29;11.40;;;7.78;;
11346;SDS011;5728;42.722;23.258;2023-06-10T01:06:00;9.85;;;7.60;;
11346;SDS011;5728;42.722;23.258;2023-06-10T01:08:33;11.07;;;8.25;;
11346;SDS011;5728;42.722;23.258;2023-06-10T01:11:07;7.95;;;6.28;;
11346;SDS011;5728;42.722;23.258;2023-06-10T01:13:40;10.45;;;7.55;;
11346;SDS011;5728;42.722;23.258;2023-06-10T01:16:08;12.35;;;7.88;;
11346;SDS011;5728;42.722;23.258;2023-06-10T01:18:36;8.20;;;6.60;;
11346;SDS011;5728;42.722;23.258;2023-06-10T01:21:05;9.70;;;7.13;;
11346;SDS011;5728;42.722;23.258;2023-06-10T01:23:35;14.90;;;7.32;;
11346;SDS011;5728;42.722;23.258;2023-06-10T01:26:07;10.48;;;7.05;;
11346;SDS011;5728;42.722;23.258;2023-06-10T01:28:44;11.80;;;6.75;;
11346;SDS011;5728;42.722;23.258;2023-06-10T01:31:16;11.00;;;6.78;;
11346;SDS011;5728;42.722;23.258;2023-06-10T01:33:47;9.52;;;7.13;;
11346;SDS011;5728;42.722;23.258;2023-06-10T01:36:16;12.32;;;7.07;;
11346;SDS011;5728;42.722;23.258;2023-06-10T01:38:47;6.70;;;6.07;;
11346;SDS011;5728;42.722;23.258;2023-06-10T01:41:16;7.35;;;6.25;;
11346;SDS011;5728;42.722;23.258;2023-06-10T01:43:44;9.93;;;6.30;;
11346;SDS011;5728;42.722;23.258;2023-06-10T01:46:12;8.00;;;6.03;;
11346;SDS011;5728;42.722;23.258;2023-06-10T01:48:40;8.15;;;6.32;;
11346;SDS011;5728;42.722;23.258;2023-06-10T01:51:08;10.15;;;6.00;;
11346;SDS011;5728;42.722;23.258;2023-06-10T01:53:35;8.65;;;6.45;;
11346;SDS011;5728;42.722;23.258;2023-06-10T01:56:03;8.98;;;6.45;;
11346;SDS011;5728;42.722;23.258;2023-06-10T01:58:30;8.73;;;6.05;;
11346;SDS011;5728;42.722;23.258;2023-06-10T02:00:59;7.30;;;6.25;;
11346;SDS011;5728;42.722;23.258;2023-06-10T02:03:26;10.98;;;6.50;;
11346;SDS011;5728;42.722;23.258;2023-06-10T02:05:52;12.52;;;6.45;;
11346;SDS011;5728;42.722;23.258;2023-06-10T02:08:19;7.65;;;6.35;;
11346;SDS011;5728;42.722;23.258;2023-06-10T02:10:46;9.32;;;5.85;;
11346;SDS011;5728;42.722;23.258;2023-06-10T02:13:14;13.07;;;6.47;;
11346;SDS011;5728;42.722;23.258;2023-06-10T02:15:41;8.43;;;6.40;;
11346;SDS011;5728;42.722;23.258;2023-06-10T02:18:08;10.38;;;6.88;;
11346;SDS011;5728;42.722;23.258;2023-06-10T02:20:37;10.65;;;7.07;;
11346;SDS011;5728;42.722;23.258;2023-06-10T02:23:04;9.18;;;6.80;;
11346;SDS011;5728;42.722;23.258;2023-06-10T02:25:31;8.45;;;6.53;;
11346;SDS011;5728;42.722;23.258;2023-06-10T02:27:58;7.25;;;6.32;;
11346;SDS011;5728;42.722;23.258;2023-06-10T02:30:26;11.18;;;6.78;;
11346;SDS011;5728;42.722;23.258;2023-06-10T02:32:53;13.57;;;7.05;;
11346;SDS011;5728;42.722;23.258;2023-06-10T02:35:21;8.75;;;6.65;;
11346;SDS011;5728;42.722;23.258;2023-06-10T02:37:49;11.07;;;6.80;;
11346;SDS011;5728;42.722;23.258;2023-06-10T02:40:16;10.88;;;7.22;;
11346;SDS011;5728;42.722;23.258;2023-06-10T02:42:42;10.15;;;6.45;;
11346;SDS011;5728;42.722;23.258;2023-06-10T02:45:09;9.10;;;6.88;;
11346;SDS011;5728;42.722;23.258;2023-06-10T02:47:38;8.57;;;6.15;;
11346;SDS011;5728;42.722;23.258;2023-06-10T02:50:06;9.77;;;6.35;;
11346;SDS011;5728;42.722;23.258;2023-06-10T02:52:33;9.55;;;7.30;;
11346;SDS011;5728;42.722;23.258;2023-06-10T02:55:00;16.23;;;7.18;;
11346;SDS011;5728;42.722;23.258;2023-06-10T02:57:27;9.35;;;7.30;;
11346;SDS011;5728;42.722;23.258;2023-06-10T02:59:53;8.57;;;7.32;;
11346;SDS011;5728;42.722;23.258;2023-06-10T03:02:20;9.75;;;7.70;;
11346;SDS011;5728;42.722;23.258;2023-06-10T03:04:54;9.18;;;7.60;;
11346;SDS011;5728;42.722;23.258;2023-06-10T03:07:21;9.32;;;7.53;;
11346;SDS011;5728;42.722;23.258;2023-06-10T03:09:48;10.75;;;8.15;;
11346;SDS011;5728;42.722;23.258;2023-06-10T03:12:15;10.82;;;8.30;;
11346;SDS011;5728;42.722;23.258;2023-06-10T03:14:42;11.75;;;9.25;;
11346;SDS011;5728;42.722;23.258;2023-06-10T03:17:09;11.15;;;8.73;;
11346;SDS011;5728;42.722;23.258;2023-06-10T03:19:36;11.13;;;8.18;;
11346;SDS011;5728;42.722;23.258;2023-06-10T03:22:09;10.75;;;7.88;;
11346;SDS011;5728;42.722;23.258;2023-06-10T03:24:37;12.75;;;7.32;;
11346;SDS011;5728;42.722;23.258;2023-06-10T03:27:06;11.35;;;7.63;;
11346;SDS011;5728;42.722;23.258;2023-06-10T03:29:33;12.77;;;8.32;;
11346;SDS011;5728;42.722;23.258;2023-06-10T03:32:00;12.40;;;8.10;;
11346;SDS011;5728;42.722;23.258;2023-06-10T03:34:27;8.88;;;7.75;;
11346;SDS011;5728;42.722;23.258;2023-06-10T03:36:55;10.68;;;7.03;;
11346;SDS011;5728;42.722;23.258;2023-06-10T03:39:23;10.02;;;8.15;;
11346;SDS011;5728;42.722;23.258;2023-06-10T03:41:50;15.23;;;8.25;;
11346;SDS011;5728;42.722;23.258;2023-06-10T03:44:17;8.98;;;7.95;;
11346;SDS011;5728;42.722;23.258;2023-06-10T03:46:44;11.00;;;8.10;;
11346;SDS011;5728;42.722;23.258;2023-06-10T03:49:12;10.80;;;7.93;;
11346;SDS011;5728;42.722;23.258;2023-06-10T03:51:40;13.40;;;7.25;;
11346;SDS011;5728;42.722;23.258;2023-06-10T03:54:07;9.85;;;7.38;;
11346;SDS011;5728;42.722;23.258;2023-06-10T03:56:36;12.13;;;8.13;;
11346;SDS011;5728;42.722;23.258;2023-06-10T03:59:03;11.45;;;7.80;;
11346;SDS011;5728;42.722;23.258;2023-06-10T04:01:30;10.07;;;7.65;;
11346;SDS011;5728;42.722;23.258;2023-06-10T04:03:58;11.43;;;7.40;;
11346;SDS011;5728;42.722;23.258;2023-06-10T04:06:26;10.77;;;7.57;;
11346;SDS011;5728;42.722;23.258;2023-06-10T04:08:54;9.50;;;7.80;;
11346;SDS011;5728;42.722;23.258;2023-06-10T04:11:22;9.80;;;7.90;;
11346;SDS011;5728;42.722;23.258;2023-06-10T04:13:50;12.27;;;8.02;;
11346;SDS011;5728;42.722;23.258;2023-06-10T04:16:17;9.40;;;6.57;;
11346;SDS011;5728;42.722;23.258;2023-06-10T04:18:43;10.30;;;7.50;;
11346;SDS011;5728;42.722;23.258;2023-06-10T04:21:11;10.48;;;8.43;;
11346;SDS011;5728;42.722;23.258;2023-06-10T04:23:38;8.90;;;7.72;;
11346;SDS011;5728;42.722;23.258;2023-06-10T04:26:04;14.30;;;7.63;;
11346;SDS011;5728;42.722;23.258;2023-06-10T04:28:32;12.88;;;6.93;;
11346;SDS011;5728;42.722;23.258;2023-06-10T04:31:04;8.55;;;6.40;;
11346;SDS011;5728;42.722;23.258;2023-06-10T04:33:30;7.22;;;6.30;;
11346;SDS011;5728;42.722;23.258;2023-06-10T04:35:57;8.85;;;7.07;;
11346;SDS011;5728;42.722;23.258;2023-06-10T04:38:24;12.13;;;6.72;;
11346;SDS011;5728;42.722;23.258;2023-06-10T04:40:51;13.50;;;6.95;;
11346;SDS011;5728;42.722;23.258;2023-06-10T04:43:18;11.48;;;7.15;;
11346;SDS011;5728;42.722;23.258;2023-06-10T04:45:45;11.23;;;6.93;;
11346;SDS011;5728;42.722;23.258;2023-06-10T04:48:14;8.15;;;5.85;;
11346;SDS011;5728;42.722;23.258;2023-06-10T04:50:41;9.32;;;6.35;;
11346;SDS011;5728;42.722;23.258;2023-06-10T04:53:08;10.98;;;5.38;;
11346;SDS011;5728;42.722;23.258;2023-06-10T04:55:35;6.30;;;5.70;;
11346;SDS011;5728;42.722;23.258;2023-06-10T04:58:02;7.53;;;6.28;;
11346;SDS011;5728;42.722;23.258;2023-06-10T05:00:29;7.10;;;6.40;;
11346;SDS011;5728;42.722;23.258;2023-06-10T05:02:55;7.20;;;5.40;;
11346;SDS011;5728;42.722;23.258;2023-06-10T05:05:24;9.40;;;5.57;;
11346;SDS011;5728;42.722;23.258;2023-06-10T05:07:51;7.38;;;5.95;;
11346;SDS011;5728;42.722;23.258;2023-06-10T05:10:18;8.52;;;5.90;;
11346;SDS011;5728;42.722;23.258;2023-06-10T05:12:46;9.15;;;6.95;;
11346;SDS011;5728;42.722;23.258;2023-06-10T05:15:13;11.77;;;6.45;;
11346;SDS011;5728;42.722;23.258;2023-06-10T05:17:40;8.98;;;6.55;;
11346;SDS011;5728;42.722;23.258;2023-06-10T05:20:08;9.18;;;6.70;;
11346;SDS011;5728;42.722;23.258;2023-06-10T05:22:37;10.20;;;7.13;;
11346;SDS011;5728;42.722;23.258;2023-06-10T05:25:04;10.75;;;6.28;;
11346;SDS011;5728;42.722;23.258;2023-06-10T05:27:32;8.77;;;6.63;;
11346;SDS011;5728;42.722;23.258;2023-06-10T05:29:59;10.90;;;7.57;;
11346;SDS011;5728;42.722;23.258;2023-06-10T05:32:26;7.30;;;6.25;;
11346;SDS011;5728;42.722;23.258;2023-06-10T05:34:52;8.90;;;6.47;;
11346;SDS011;5728;42.722;23.258;2023-06-10T05:37:19;9.27;;;6.70;;
11346;SDS011;5728;42.722;23.258;2023-06-10T05:39:47;7.22;;;6.22;;
11346;SDS011;5728;42.722;23.258;2023-06-10T05:42:14;7.03;;;6.32;;
11346;SDS011;5728;42.722;23.258;2023-06-10T05:44:41;10.75;;;6.35;;
11346;SDS011;5728;42.722;23.258;2023-06-10T05:47:08;10.82;;;6.90;;
11346;SDS011;5728;42.722;23.258;2023-06-10T05:49:34;10.95;;;5.55;;
11346;SDS011;5728;42.722;23.258;2023-06-10T05:52:01;7.70;;;5.07;;
11346;SDS011;5728;42.722;23.258;2023-06-10T05:54:28;5.90;;;5.30;;
11346;SDS011;5728;42.722;23.258;2023-06-10T05:56:56;8.57;;;4.97;;
11346;SDS011;5728;42.722;23.258;2023-06-10T05:59:23;6.72;;;4.65;;
11346;SDS011;5728;42.722;23.258;2023-06-10T06:01:50;8.77;;;5.53;;
11346;SDS011;5728;42.722;23.258;2023-06-10T06:04:17;12.40;;;6.75;;
11346;SDS011;5728;42.722;23.258;2023-06-10T06:06:43;8.57;;;4.90;;
11346;SDS011;5728;42.722;23.258;2023-06-10T06:09:10;9.57;;;5.72;;
11346;SDS011;5728;42.722;23.258;2023-06-10T06:11:37;7.15;;;5.40;;
11346;SDS011;5728;42.722;23.258;2023-06-10T06:14:05;13.50;;;6.13;;
11346;SDS011;5728;42.722;23.258;2023-06-10T06:16:32;9.43;;;5.47;;
11346;SDS011;5728;42.722;23.258;2023-06-10T06:18:59;9.60;;;6.20;;
11346;SDS011;5728;42.722;23.258;2023-06-10T06:21:26;7.13;;;5.95;;
11346;SDS011;5728;42.722;23.258;2023-06-10T06:23:53;13.38;;;5.95;;
11346;SDS011;5728;42.722;23.258;2023-06-10T06:26:20;9.27;;;5.65;;
11346;SDS011;5728;42.722;23.258;2023-06-10T06:28:47;10.38;;;6.32;;
11346;SDS011;5728;42.722;23.258;2023-06-10T06:31:15;7.35;;;5.72;;
11346;SDS011;5728;42.722;23.258;2023-06-10T06:33:44;7.35;;;5.70;;
11346;SDS011;5728;42.722;23.258;2023-06-10T06:36:12;8.27;;;4.82;;
11346;SDS011;5728;42.722;23.258;2023-06-10T06:38:39;6.70;;;5.00;;
11346;SDS011;5728;42.722;23.258;2023-06-10T06:41:05;7.43;;;5.82;;
11346;SDS011;5728;42.722;23.258;2023-06-10T06:43:32;10.18;;;5.57;;
11346;SDS011;5728;42.722;23.258;2023-06-10T06:45:59;9.55;;;5.20;;
11346;SDS011;5728;42.722;23.258;2023-06-10T06:48:27;11.85;;;5.63;;
11346;SDS011;5728;42.722;23.258;2023-06-10T06:50:54;10.85;;;5.53;;
11346;SDS011;5728;42.722;23.258;2023-06-10T06:53:23;7.60;;;5.22;;
11346;SDS011;5728;42.722;23.258;2023-06-10T06:55:50;6.93;;;5.57;;
11346;SDS011;5728;42.722;23.258;2023-06-10T06:58:17;13.85;;;5.13;;
11346;SDS011;5728;42.722;23.258;2023-06-10T07:00:43;6.88;;;4.88;;
11346;SDS011;5728;42.722;23.258;2023-06-10T07:03:10;5.20;;;4.70;;
11346;SDS011;5728;42.722;23.258;2023-06-10T07:05:38;12.57;;;4.80;;
11346;SDS011;5728;42.722;23.258;2023-06-10T07:08:05;6.35;;;4.68;;
11346;SDS011;5728;42.722;23.258;2023-06-10T07:10:32;7.22;;;4.90;;
11346;SDS011;5728;42.722;23.258;2023-06-10T07:12:59;9.02;;;5.10;;
11346;SDS011;5728;42.722;23.258;2023-06-10T07:15:26;5.80;;;4.68;;
11346;SDS011;5728;42.722;23.258;2023-06-10T07:17:53;5.22;;;4.20;;
11346;SDS011;5728;42.722;23.258;2023-06-10T07:20:20;7.13;;;4.93;;
11346;SDS011;5728;42.722;23.258;2023-06-10T07:22:48;6.82;;;3.88;;
11346;SDS011;5728;42.722;23.258;2023-06-10T07:25:15;8.75;;;3.85;;
11346;SDS011;5728;42.722;23.258;2023-06-10T07:27:42;6.00;;;3.50;;
11346;SDS011;5728;42.722;23.258;2023-06-10T07:30:09;3.75;;;3.30;;
11346;SDS011;5728;42.722;23.258;2023-06-10T07:32:36;6.40;;;3.72;;
11346;SDS011;5728;42.722;23.258;2023-06-10T07:35:05;6.25;;;3.53;;
11346;SDS011;5728;42.722;23.258;2023-06-10T07:37:34;4.18;;;3.58;;
11346;SDS011;5728;42.722;23.258;2023-06-10T07:40:03;4.45;;;3.63;;
11346;SDS011;5728;42.722;23.258;2023-06-10T07:42:30;4.63;;;3.75;;
11346;SDS011;5728;42.722;23.258;2023-06-10T07:44:58;4.60;;;3.42;;
11346;SDS011;5728;42.722;23.258;2023-06-10T07:47:25;4.55;;;3.83;;
11346;SDS011;5728;42.722;23.258;2023-06-10T07:49:51;7.80;;;3.85;;
11346;SDS011;5728;42.722;23.258;2023-06-10T07:52:18;4.05;;;3.60;;
11346;SDS011;5728;42.722;23.258;2023-06-10T07:54:45;4.07;;;3.67;;
11346;SDS011;5728;42.722;23.258;2023-06-10T07:57:13;8.07;;;4.00;;
11346;SDS011;5728;42.722;23.258;2023-06-10T07:59:40;4.18;;;3.40;;
11346;SDS011;5728;42.722;23.258;2023-06-10T08:02:06;6.70;;;3.30;;
11346;SDS011;5728;42.722;23.258;2023-06-10T08:04:33;7.88;;;3.60;;
11346;SDS011;5728;42.722;23.258;2023-06-10T08:07:00;4.45;;;3.30;;
11346;SDS011;5728;42.722;23.258;2023-06-10T08:09:27;8.05;;;4.22;;
11346;SDS011;5728;42.722;23.258;2023-06-10T08:11:54;4.50;;;3.55;;
11346;SDS011;5728;42.722;23.258;2023-06-10T08:14:22;8.93;;;3.35;;
11346;SDS011;5728;42.722;23.258;2023-06-10T08:16:49;6.50;;;3.80;;
11346;SDS011;5728;42.722;23.258;2023-06-10T08:19:16;4.88;;;3.38;;
11346;SDS011;5728;42.722;23.258;2023-06-10T08:21:43;6.03;;;3.00;;
11346;SDS011;5728;42.722;23.258;2023-06-10T08:24:09;6.90;;;3.60;;
11346;SDS011;5728;42.722;23.258;2023-06-10T08:26:36;5.60;;;3.63;;
11346;SDS011;5728;42.722;23.258;2023-06-10T08:29:05;5.82;;;3.30;;
11346;SDS011;5728;42.722;23.258;2023-06-10T08:31:33;6.60;;;3.40;;
11346;SDS011;5728;42.722;23.258;2023-06-10T08:34:00;4.60;;;3.65;;
11346;SDS011;5728;42.722;23.258;2023-06-10T08:36:27;6.15;;;3.28;;
11346;SDS011;5728;42.722;23.258;2023-06-10T08:38:54;7.57;;;3.13;;
11346;SDS011;5728;42.722;23.258;2023-06-10T08:41:23;5.40;;;3.78;;
11346;SDS011;5728;42.722;23.258;2023-06-10T08:43:58;4.75;;;3.63;;
11346;SDS011;5728;42.722;23.258;2023-06-10T08:46:31;4.82;;;2.45;;
11346;SDS011;5728;42.722;23.258;2023-06-10T08:49:01;5.03;;;3.20;;
11346;SDS011;5728;42.722;23.258;2023-06-10T08:51:31;5.03;;;2.70;;
11346;SDS011;5728;42.722;23.258;2023-06-10T08:54:01;5.07;;;3.10;;
11346;SDS011;5728;42.722;23.258;2023-06-10T08:56:30;3.53;;;3.22;;
11346;SDS011;5728;42.722;23.258;2023-06-10T08:59:04;3.58;;;2.83;;
11346;SDS011;5728;42.722;23.258;2023-06-10T09:01:34;7.85;;;3.17;;
11346;SDS011;5728;42.722;23.258;2023-06-10T09:04:02;4.38;;;3.78;;
11346;SDS011;5728;42.722;23.258;2023-06-10T09:06:31;5.53;;;2.78;;
11346;SDS011;5728;42.722;23.258;2023-06-10T09:09:01;3.40;;;2.60;;
11346;SDS011;5728;42.722;23.258;2023-06-10T09:11:29;3.50;;;3.17;;
11346;SDS011;5728;42.722;23.258;2023-06-10T09:13:57;3.30;;;3.00;;
11346;SDS011;5728;42.722;23.258;2023-06-10T09:16:26;3.88;;;2.83;;
11346;SDS011;5728;42.722;23.258;2023-06-10T09:18:56;3.80;;;2.60;;
11346;SDS011;5728;42.722;23.258;2023-06-10T09:21:24;3.05;;;2.60;;
11346;SDS011;5728;42.722;23.258;2023-06-10T09:23:53;2.90;;;2.40;;
11346;SDS011;5728;42.722;23.258;2023-06-10T09:26:21;3.90;;;2.58;;
11346;SDS011;5728;42.722;23.258;2023-06-10T09:28:57;2.55;;;2.35;;
11346;SDS011;5728;42.722;23.258;2023-06-10T09:31:30;3.45;;;2.50;;
11346;SDS011;5728;42.722;23.258;2023-06-10T09:34:06;3.53;;;2.58;;
11346;SDS011;5728;42.722;23.258;2023-06-10T09:36:35;4.50;;;2.47;;
11346;SDS011;5728;42.722;23.258;2023-06-10T09:39:03;5.10;;;2.67;;
11346;SDS011;5728;42.722;23.258;2023-06-10T09:41:33;2.92;;;2.40;;
11346;SDS011;5728;42.722;23.258;2023-06-10T09:44:01;2.72;;;2.10;;
11346;SDS011;5728;42.722;23.258;2023-06-10T09:46:30;3.05;;;2.65;;
11346;SDS011;5728;42.722;23.258;2023-06-10T09:48:58;2.65;;;2.20;;
11346;SDS011;5728;42.722;23.258;2023-06-10T09:51:28;5.30;;;2.50;;
11346;SDS011;5728;42.722;23.258;2023-06-10T09:53:57;4.07;;;2.20;;
11346;SDS011;5728;42.722;23.258;2023-06-10T09:56:32;3.22;;;2.67;;
11346;SDS011;5728;42.722;23.258;2023-06-10T09:59:01;5.00;;;2.50;;
11346;SDS011;5728;42.722;23.258;2023-06-10T10:01:33;4.25;;;2.92;;
11346;SDS011;5728;42.722;23.258;2023-06-10T10:04:01;4.22;;;2.88;;
11346;SDS011;5728;42.722;23.258;2023-06-10T10:06:32;5.72;;;3.00;;
11346;SDS011;5728;42.722;23.258;2023-06-10T10:09:01;3.80;;;2.83;;
11346;SDS011;5728;42.722;23.258;2023-06-10T10:11:30;7.28;;;3.03;;
11346;SDS011;5728;42.722;23.258;2023-06-10T10:14:00;3.60;;;2.35;;
11346;SDS011;5728;42.722;23.258;2023-06-10T10:16:32;3.85;;;2.63;;
11346;SDS011;5728;42.722;23.258;2023-06-10T10:19:06;2.80;;;2.60;;
11346;SDS011;5728;42.722;23.258;2023-06-10T10:21:39;2.85;;;2.40;;
11346;SDS011;5728;42.722;23.258;2023-06-10T10:24:13;4.68;;;2.33;;
11346;SDS011;5728;42.722;23.258;2023-06-10T10:26:46;3.00;;;2.33;;
11346;SDS011;5728;42.722;23.258;2023-06-10T10:29:14;6.05;;;2.38;;
11346;SDS011;5728;42.722;23.258;2023-06-10T10:31:46;4.63;;;2.67;;
11346;SDS011;5728;42.722;23.258;2023-06-10T10:34:18;2.78;;;2.47;;
11346;SDS011;5728;42.722;23.258;2023-06-10T10:36:50;3.97;;;2.70;;
11346;SDS011;5728;42.722;23.258;2023-06-10T10:39:17;3.67;;;2.65;;
11346;SDS011;5728;42.722;23.258;2023-06-10T10:41:45;3.45;;;2.70;;
11346;SDS011;5728;42.722;23.258;2023-06-10T10:44:14;3.15;;;2.40;;
11346;SDS011;5728;42.722;23.258;2023-06-10T10:46:42;2.70;;;2.50;;
11346;SDS011;5728;42.722;23.258;2023-06-10T10:49:10;3.33;;;2.42;;
11346;SDS011;5728;42.722;23.258;2023-06-10T10:54:28;2.67;;;2.20;;
11346;SDS011;5728;42.722;23.258;2023-06-10T10:57:11;4.22;;;3.15;;
11346;SDS011;5728;42.722;23.258;2023-06-10T10:59:47;5.95;;;3.50;;
11346;SDS011;5728;42.722;23.258;2023-06-10T11:02:32;5.15;;;3.40;;
11346;SDS011;5728;42.722;23.258;2023-06-10T11:05:01;3.17;;;2.88;;
11346;SDS011;5728;42.722;23.258;2023-06-10T11:07:32;3.33;;;3.03;;
11346;SDS011;5728;42.722;23.258;2023-06-10T11:10:02;4.13;;;2.60;;
11346;SDS011;5728;42.722;23.258;2023-06-10T11:12:42;5.78;;;2.95;;
11346;SDS011;5728;42.722;23.258;2023-06-10T11:15:19;5.00;;;2.70;;
11346;SDS011;5728;42.722;23.258;2023-06-10T11:20:54;3.35;;;2.85;;
11346;SDS011;5728;42.722;23.258;2023-06-10T11:23:32;5.85;;;3.25;;
11346;SDS011;5728;42.722;23.258;2023-06-10T11:26:09;6.03;;;3.40;;
11346;SDS011;5728;42.722;23.258;2023-06-10T11:28:41;4.38;;;3.22;;
11346;SDS011;5728;42.722;23.258;2023-06-10T11:31:28;4.63;;;2.90;;
11346;SDS011;5728;42.722;23.258;2023-06-10T11:33:56;5.00;;;2.90;;
11346;SDS011;5728;42.722;23.258;2023-06-10T11:36:25;5.18;;;3.15;;
11346;SDS011;5728;42.722;23.258;2023-06-10T11:38:57;5.15;;;3.47;;
11346;SDS011;5728;42.722;23.258;2023-06-10T11:41:26;5.95;;;3.05;;
11346;SDS011;5728;42.722;23.258;2023-06-10T11:43:54;6.25;;;3.67;;
11346;SDS011;5728;42.722;23.258;2023-06-10T11:46:23;5.18;;;2.70;;
11346;SDS011;5728;42.722;23.258;2023-06-10T11:48:52;4.50;;;3.10;;
11346;SDS011;5728;42.722;23.258;2023-06-10T11:51:21;4.03;;;3.20;;
11346;SDS011;5728;42.722;23.258;2023-06-10T11:53:49;3.60;;;2.92;;
11346;SDS011;5728;42.722;23.258;2023-06-10T11:56:20;4.13;;;3.30;;
11346;SDS011;5728;42.722;23.258;2023-06-10T11:58:51;3.47;;;3.05;;
11346;SDS011;5728;42.722;23.258;2023-06-10T12:01:21;3.42;;;2.75;;
11346;SDS011;5728;42.722;23.258;2023-06-10T12:03:56;6.07;;;2.83;;
11346;SDS011;5728;42.722;23.258;2023-06-10T12:06:23;4.72;;;3.08;;
11346;SDS011;5728;42.722;23.258;2023-06-10T12:08:53;4.50;;;3.13;;
11346;SDS011;5728;42.722;23.258;2023-06-10T12:11:24;4.18;;;3.33;;
11346;SDS011;5728;42.722;23.258;2023-06-10T12:13:51;3.65;;;3.05;;
11346;SDS011;5728;42.722;23.258;2023-06-10T12:16:19;3.97;;;3.10;;
11346;SDS011;5728;42.722;23.258;2023-06-10T12:18:47;4.85;;;3.20;;
11346;SDS011;5728;42.722;23.258;2023-06-10T12:21:18;4.32;;;3.50;;
11346;SDS011;5728;42.722;23.258;2023-06-10T12:24:05;5.45;;;3.13;;
11346;SDS011;5728;42.722;23.258;2023-06-10T12:26:39;4.30;;;2.80;;
11346;SDS011;5728;42.722;23.258;2023-06-10T12:29:17;6.13;;;2.75;;
11346;SDS011;5728;42.722;23.258;2023-06-10T12:31:54;6.03;;;3.38;;
11346;SDS011;5728;42.722;23.258;2023-06-10T12:37:12;5.10;;;2.85;;
11346;SDS011;5728;42.722;23.258;2023-06-10T12:39:40;3.47;;;2.75;;
11346;SDS011;5728;42.722;23.258;2023-06-10T12:42:12;4.95;;;3.80;;
11346;SDS011;5728;42.722;23.258;2023-06-10T12:44:39;4.00;;;2.92;;
11346;SDS011;5728;42.722;23.258;2023-06-10T12:47:08;5.57;;;2.78;;
11346;SDS011;5728;42.722;23.258;2023-06-10T12:49:38;3.70;;;3.15;;
11346;SDS011;5728;42.722;23.258;2023-06-10T12:52:06;4.28;;;2.92;;
11346;SDS011;5728;42.722;23.258;2023-06-10T12:54:34;4.90;;;2.97;;
11346;SDS011;5728;42.722;23.258;2023-06-10T12:57:03;3.47;;;3.00;;
11346;SDS011;5728;42.722;23.258;2023-06-10T12:59:32;3.55;;;2.70;;
11346;SDS011;5728;42.722;23.258;2023-06-10T13:02:00;3.97;;;3.15;;
11346;SDS011;5728;42.722;23.258;2023-06-10T13:04:27;5.03;;;3.05;;
11346;SDS011;5728;42.722;23.258;2023-06-10T13:06:55;5.30;;;3.70;;
11346;SDS011;5728;42.722;23.258;2023-06-10T13:09:24;8.63;;;3.55;;
11346;SDS011;5728;42.722;23.258;2023-06-10T13:11:51;11.63;;;3.55;;
11346;SDS011;5728;42.722;23.258;2023-06-10T13:14:20;6.72;;;3.33;;
11346;SDS011;5728;42.722;23.258;2023-06-10T13:16:48;6.35;;;3.65;;
11346;SDS011;5728;42.722;23.258;2023-06-10T13:19:16;4.75;;;3.90;;
11346;SDS011;5728;42.722;23.258;2023-06-10T13:21:46;7.93;;;3.75;;
11346;SDS011;5728;42.722;23.258;2023-06-10T13:24:13;4.70;;;4.03;;
11346;SDS011;5728;42.722;23.258;2023-06-10T13:26:41;5.82;;;3.75;;
11346;SDS011;5728;42.722;23.258;2023-06-10T13:29:08;8.85;;;4.40;;
11346;SDS011;5728;42.722;23.258;2023-06-10T13:31:39;6.95;;;4.30;;
11346;SDS011;5728;42.722;23.258;2023-06-10T13:34:08;7.63;;;4.10;;
11346;SDS011;5728;42.722;23.258;2023-06-10T13:36:36;7.43;;;4.07;;
11346;SDS011;5728;42.722;23.258;2023-06-10T13:39:03;6.10;;;4.63;;
11346;SDS011;5728;42.722;23.258;2023-06-10T13:41:30;5.22;;;3.70;;
11346;SDS011;5728;42.722;23.258;2023-06-10T13:43:56;6.32;;;4.30;;
11346;SDS011;5728;42.722;23.258;2023-06-10T13:46:23;4.75;;;4.25;;
11346;SDS011;5728;42.722;23.258;2023-06-10T13:48:51;5.05;;;3.78;;
11346;SDS011;5728;42.722;23.258;2023-06-10T13:51:19;4.63;;;4.00;;
11346;SDS011;5728;42.722;23.258;2023-06-10T13:53:46;4.95;;;4.10;;
11346;SDS011;5728;42.722;23.258;2023-06-10T13:56:13;4.68;;;4.05;;
11346;SDS011;5728;42.722;23.258;2023-06-10T13:58:40;4.78;;;4.13;;
11346;SDS011;5728;42.722;23.258;2023-06-10T14:01:08;8.38;;;4.10;;
11346;SDS011;5728;42.722;23.258;2023-06-10T14:03:34;4.82;;;3.53;;
11346;SDS011;5728;42.722;23.258;2023-06-10T14:06:01;7.38;;;4.38;;
11346;SDS011;5728;42.722;23.258;2023-06-10T14:08:29;5.18;;;3.90;;
11346;SDS011;5728;42.722;23.258;2023-06-10T14:10:56;3.80;;;3.17;;
11346;SDS011;5728;42.722;23.258;2023-06-10T14:13:23;4.93;;;4.43;;
11346;SDS011;5728;42.722;23.258;2023-06-10T14:15:50;4.72;;;3.80;;
11346;SDS011;5728;42.722;23.258;2023-06-10T14:18:17;9.93;;;3.58;;
11346;SDS011;5728;42.722;23.258;2023-06-10T14:20:44;5.70;;;3.72;;
11346;SDS011;5728;42.722;23.258;2023-06-10T14:23:11;5.20;;;3.75;;
11346;SDS011;5728;42.722;23.258;2023-06-10T14:25:39;5.00;;;3.97;;
11346;SDS011;5728;42.722;23.258;2023-06-10T14:28:06;4.38;;;3.55;;
11346;SDS011;5728;42.722;23.258;2023-06-10T14:30:32;5.97;;;3.97;;
11346;SDS011;5728;42.722;23.258;2023-06-10T14:32:59;6.65;;;3.92;;
11346;SDS011;5728;42.722;23.258;2023-06-10T14:35:26;7.20;;;4.85;;
11346;SDS011;5728;42.722;23.258;2023-06-10T14:37:53;6.35;;;3.88;;
11346;SDS011;5728;42.722;23.258;2023-06-10T14:40:20;6.32;;;4.75;;
11346;SDS011;5728;42.722;23.258;2023-06-10T14:42:50;8.65;;;4.50;;
11346;SDS011;5728;42.722;23.258;2023-06-10T14:45:17;4.30;;;3.45;;
11346;SDS011;5728;42.722;23.258;2023-06-10T14:47:44;5.53;;;4.15;;
11346;SDS011;5728;42.722;23.258;2023-06-10T14:50:12;4.20;;;3.40;;
11346;SDS011;5728;42.722;23.258;2023-06-10T14:52:38;3.85;;;3.45;;
11346;SDS011;5728;42.722;23.258;2023-06-10T14:55:05;4.57;;;3.72;;
11346;SDS011;5728;42.722;23.258;2023-06-10T14:57:33;6.20;;;3.83;;
11346;SDS011;5728;42.722;23.258;2023-06-10T15:00:01;5.63;;;3.80;;
11346;SDS011;5728;42.722;23.258;2023-06-10T15:02:28;5.20;;;3.85;;